createdAt,value
2018-04-06T00:00:14.343Z,3.27
2018-04-06T00:02:42.781Z,3.21
2018-04-06T00:05:11.189Z,3.13
2018-04-06T00:07:39.591Z,3.01
2018-04-06T00:10:08.066Z,3.05
2018-04-06T00:12:36.470Z,2.95
2018-04-06T00:15:04.904Z,2.96
2018-04-06T00:17:33.349Z,2.99
2018-04-06T00:20:01.757Z,2.94
2018-04-06T00:22:30.158Z,2.89
2018-04-06T00:24:58.608Z,2.87
2018-04-06T00:27:27.002Z,2.88
2018-04-06T00:29:55.405Z,2.68
2018-04-06T00:32:23.866Z,2.55
2018-04-06T00:34:52.261Z,2.64
2018-04-06T00:37:20.671Z,2.60
2018-04-06T00:39:49.121Z,2.62
2018-04-06T00:42:17.525Z,2.56
2018-04-06T00:44:45.929Z,2.52
2018-04-06T00:47:14.369Z,2.63
2018-04-06T00:49:42.782Z,2.57
2018-04-06T00:52:11.186Z,2.70
2018-04-06T00:54:39.645Z,2.62
2018-04-06T00:57:08.048Z,2.68
2018-04-06T00:59:36.445Z,2.73
2018-04-06T01:02:04.885Z,2.61
2018-04-06T01:04:33.295Z,2.54
2018-04-06T01:07:01.702Z,2.46
2018-04-06T01:09:30.146Z,2.48
2018-04-06T01:11:58.566Z,2.43
2018-04-06T01:14:26.972Z,2.42
2018-04-06T01:16:55.429Z,2.43
2018-04-06T01:19:23.833Z,2.47
2018-04-06T01:21:52.243Z,2.49
2018-04-06T01:24:20.701Z,2.51
2018-04-06T01:26:49.119Z,2.45
2018-04-06T01:29:17.537Z,2.40
2018-04-06T01:31:45.998Z,2.40
2018-04-06T01:34:14.398Z,2.45
2018-04-06T01:36:42.810Z,2.44
2018-04-06T01:39:11.250Z,2.42
2018-04-06T01:41:39.654Z,2.44
2018-04-06T01:44:08.061Z,2.40
2018-04-06T01:46:36.519Z,2.37
2018-04-06T01:49:04.928Z,2.25
2018-04-06T01:51:33.337Z,2.18
2018-04-06T01:54:01.784Z,2.25
2018-04-06T01:56:30.190Z,2.27
2018-04-06T01:58:58.597Z,2.20
2018-04-06T02:01:27.045Z,2.16
2018-04-06T02:03:55.445Z,2.11
2018-04-06T02:06:23.850Z,2.05
2018-04-06T02:08:52.305Z,2.09
2018-04-06T02:11:20.730Z,2.21
2018-04-06T02:13:49.126Z,2.12
2018-04-06T02:16:17.571Z,2.13
2018-04-06T02:18:45.978Z,2.07
2018-04-06T02:21:14.377Z,2.18
2018-04-06T02:23:42.821Z,2.14
2018-04-06T02:26:11.221Z,2.02
2018-04-06T02:28:39.639Z,1.97
2018-04-06T02:31:08.084Z,1.92
2018-04-06T02:33:36.503Z,2.04
2018-04-06T02:36:04.938Z,2.04
2018-04-06T02:38:33.396Z,2.05
2018-04-06T02:41:01.835Z,2.09
2018-04-06T02:43:30.242Z,1.93
2018-04-06T02:45:58.691Z,1.92
2018-04-06T02:48:27.102Z,1.86
2018-04-06T02:50:55.517Z,1.90
2018-04-06T02:53:23.974Z,1.83
2018-04-06T02:55:52.387Z,1.90
2018-04-06T02:58:20.800Z,1.96
2018-04-06T03:00:49.259Z,1.91
2018-04-06T03:03:17.667Z,1.95
2018-04-06T03:05:46.066Z,1.95
2018-04-06T03:08:14.514Z,1.79
2018-04-06T03:10:42.985Z,1.79
2018-04-06T03:13:11.397Z,1.84
2018-04-06T03:15:39.833Z,1.79
2018-04-06T03:18:08.229Z,1.80
2018-04-06T03:20:36.633Z,1.71
2018-04-06T03:23:05.082Z,1.74
2018-04-06T03:25:33.490Z,1.83
2018-04-06T03:28:01.885Z,1.87
2018-04-06T03:30:30.335Z,1.88
2018-04-06T03:32:58.742Z,1.82
2018-04-06T03:35:27.138Z,1.71
2018-04-06T03:37:55.585Z,1.65
2018-04-06T03:40:23.988Z,1.73
2018-04-06T03:42:52.389Z,1.78
2018-04-06T03:45:20.842Z,1.76
2018-04-06T03:47:49.246Z,1.64
2018-04-06T03:50:17.649Z,1.61
2018-04-06T03:52:46.107Z,1.61
2018-04-06T03:55:14.514Z,1.59
2018-04-06T03:57:42.926Z,1.57
2018-04-06T04:00:11.373Z,1.58
2018-04-06T04:02:39.770Z,1.58
2018-04-06T04:05:08.176Z,1.55
2018-04-06T04:07:36.635Z,1.52
2018-04-06T04:10:05.066Z,1.56
2018-04-06T04:12:33.474Z,1.49
2018-04-06T04:15:01.925Z,1.41
2018-04-06T04:17:30.325Z,1.39
2018-04-06T04:19:58.737Z,1.32
2018-04-06T04:22:27.193Z,1.36
2018-04-06T04:24:55.599Z,1.36
2018-04-06T04:27:24.005Z,1.35
2018-04-06T04:29:52.463Z,1.35
2018-04-06T04:32:20.868Z,1.33
2018-04-06T04:34:49.279Z,1.31
2018-04-06T04:37:17.733Z,1.26
2018-04-06T04:39:46.151Z,1.29
2018-04-06T04:42:14.573Z,1.27
2018-04-06T04:44:43.022Z,1.25
2018-04-06T04:47:11.433Z,1.23
2018-04-06T04:49:39.849Z,1.22
2018-04-06T04:52:08.320Z,1.14
2018-04-06T04:54:36.729Z,1.15
2018-04-06T04:57:05.145Z,1.12
2018-04-06T04:59:33.597Z,1.13
2018-04-06T05:02:02.015Z,1.13
2018-04-06T05:04:30.422Z,1.16
2018-04-06T05:06:58.872Z,1.24
2018-04-06T05:09:27.281Z,1.28
2018-04-06T05:11:55.690Z,1.26
2018-04-06T05:14:24.141Z,1.35
2018-04-06T05:16:52.554Z,1.38
2018-04-06T05:19:20.965Z,1.38
2018-04-06T05:21:49.415Z,1.48
2018-04-06T05:24:17.838Z,1.48
2018-04-06T05:26:46.247Z,1.53
2018-04-06T05:29:14.698Z,1.57
2018-04-06T05:31:43.120Z,1.55
2018-04-06T05:34:11.532Z,1.60
2018-04-06T05:36:39.998Z,1.65
2018-04-06T05:39:08.414Z,1.68
2018-04-06T05:41:36.826Z,1.75
2018-04-06T05:44:05.287Z,1.86
2018-04-06T05:46:33.694Z,1.94
2018-04-06T05:49:02.162Z,2.04
2018-04-06T05:51:30.610Z,2.12
2018-04-06T05:53:59.019Z,2.23
2018-04-06T05:56:27.425Z,2.32
2018-04-06T05:58:55.873Z,2.38
2018-04-06T06:01:24.278Z,2.46
2018-04-06T06:03:52.690Z,2.54
2018-04-06T06:06:21.139Z,2.64
2018-04-06T06:08:50.569Z,2.77
2018-04-06T06:11:18.978Z,2.87
2018-04-06T06:13:47.436Z,2.95
2018-04-06T06:16:15.853Z,3.06
2018-04-06T06:18:44.251Z,3.22
2018-04-06T06:21:12.706Z,3.23
2018-04-06T06:23:41.121Z,3.32
2018-04-06T06:26:09.527Z,3.39
2018-04-06T06:28:37.985Z,3.50
2018-04-06T06:31:06.386Z,3.61
2018-04-06T06:33:34.793Z,3.71
2018-04-06T06:36:03.255Z,3.76
2018-04-06T06:38:31.674Z,3.85
2018-04-06T06:41:00.082Z,4.00
2018-04-06T06:43:28.534Z,3.95
2018-04-06T06:45:56.945Z,4.00
2018-04-06T06:48:25.361Z,4.15
2018-04-06T06:50:53.850Z,4.24
2018-04-06T06:53:22.270Z,4.37
2018-04-06T06:55:50.704Z,4.48
2018-04-06T06:58:19.351Z,4.56
2018-04-06T07:00:47.772Z,4.67
2018-04-06T07:03:16.204Z,4.77
2018-04-06T07:05:44.654Z,4.93
2018-04-06T07:08:13.069Z,5.02
2018-04-06T07:10:41.486Z,5.29
2018-04-06T07:13:09.935Z,5.44
2018-04-06T07:15:38.366Z,5.62
2018-04-06T07:18:06.784Z,5.67
2018-04-06T07:20:35.249Z,5.63
2018-04-06T07:23:03.658Z,5.62
2018-04-06T07:25:32.073Z,5.65
2018-04-06T07:28:00.521Z,5.67
2018-04-06T07:30:28.931Z,5.74
2018-04-06T07:32:57.345Z,5.83
2018-04-06T07:35:25.801Z,5.99
2018-04-06T07:37:54.215Z,5.97
2018-04-06T07:40:22.626Z,6.09
2018-04-06T07:42:51.077Z,6.18
2018-04-06T07:45:19.536Z,6.25
2018-04-06T07:47:47.946Z,6.31
2018-04-06T07:50:16.398Z,6.41
2018-04-06T07:52:44.814Z,6.57
2018-04-06T07:55:13.217Z,6.70
2018-04-06T07:57:41.681Z,6.60
2018-04-06T08:00:10.087Z,6.64
2018-04-06T08:02:38.508Z,6.68
2018-04-06T08:05:06.967Z,6.85
2018-04-06T08:07:35.386Z,6.93
2018-04-06T08:10:03.868Z,6.88
2018-04-06T08:12:32.322Z,7.20
2018-04-06T08:15:00.743Z,7.27
2018-04-06T08:17:29.150Z,7.50
2018-04-06T08:19:57.618Z,7.46
2018-04-06T08:22:26.023Z,7.60
2018-04-06T08:24:54.439Z,7.89
2018-04-06T08:27:22.897Z,8.03
2018-04-06T08:29:52.729Z,8.32
2018-04-06T08:32:21.139Z,8.60
2018-04-06T08:34:49.598Z,8.71
2018-04-06T08:37:18.006Z,8.57
2018-04-06T08:39:46.416Z,8.74
2018-04-06T08:42:14.862Z,8.83
2018-04-06T08:44:43.269Z,9.05
2018-04-06T08:47:11.678Z,8.69
2018-04-06T08:49:40.133Z,8.96
2018-04-06T08:52:08.551Z,9.21
2018-04-06T08:54:37.018Z,9.14
2018-04-06T08:57:05.470Z,9.15
2018-04-06T08:59:33.913Z,9.26
2018-04-06T09:02:02.360Z,9.33
2018-04-06T09:04:30.812Z,9.61
2018-04-06T09:06:59.214Z,9.72
2018-04-06T09:09:27.634Z,10.04
2018-04-06T09:11:56.129Z,10.25
2018-04-06T09:14:24.541Z,10.24
2018-04-06T09:16:52.978Z,10.29
2018-04-06T09:19:21.466Z,10.51
2018-04-06T09:21:49.881Z,10.74
2018-04-06T09:24:18.304Z,10.95
2018-04-06T09:26:46.798Z,10.88
2018-04-06T09:29:15.206Z,10.93
2018-04-06T09:31:43.610Z,11.21
2018-04-06T09:34:12.065Z,11.22
2018-04-06T09:36:40.474Z,11.36
2018-04-06T09:39:08.893Z,11.16
2018-04-06T09:41:37.348Z,11.30
2018-04-06T09:44:05.946Z,11.66
2018-04-06T09:46:34.389Z,11.83
2018-04-06T09:49:02.842Z,11.82
2018-04-06T09:51:31.254Z,11.82
2018-04-06T09:53:59.658Z,11.62
2018-04-06T09:56:28.109Z,11.48
2018-04-06T09:58:56.521Z,11.61
2018-04-06T10:01:39.846Z,11.70
2018-04-06T10:04:08.258Z,11.96
2018-04-06T10:06:36.679Z,12.05
2018-04-06T10:09:05.949Z,12.24
2018-04-06T10:11:34.354Z,12.23
2018-04-06T10:14:02.762Z,12.22
2018-04-06T10:16:31.209Z,12.18
2018-04-06T10:18:59.617Z,12.37
2018-04-06T10:21:28.023Z,12.39
2018-04-06T10:23:56.466Z,12.53
2018-04-06T10:26:24.875Z,12.72
2018-04-06T10:28:53.289Z,12.89
2018-04-06T10:31:21.746Z,12.41
2018-04-06T10:33:50.151Z,12.64
2018-04-06T10:36:18.557Z,12.89
2018-04-06T10:38:47.017Z,13.03
2018-04-06T10:41:15.427Z,13.28
2018-04-06T10:43:43.863Z,13.46
2018-04-06T10:46:12.322Z,13.52
2018-04-06T10:48:40.752Z,13.65
2018-04-06T10:51:09.167Z,13.39
2018-04-06T10:53:37.622Z,13.30
2018-04-06T10:56:06.025Z,13.58
2018-04-06T10:58:34.501Z,13.95
2018-04-06T11:01:02.918Z,13.93
2018-04-06T11:03:31.318Z,14.06
2018-04-06T11:05:59.728Z,13.83
2018-04-06T11:08:28.185Z,13.89
2018-04-06T11:10:56.607Z,14.05
2018-04-06T11:13:25.009Z,13.95
2018-04-06T11:15:53.460Z,14.29
2018-04-06T11:18:21.861Z,14.61
2018-04-06T11:20:50.297Z,14.57
2018-04-06T11:23:18.747Z,14.76
2018-04-06T11:25:47.245Z,14.95
2018-04-06T11:28:15.710Z,14.78
2018-04-06T11:30:44.167Z,14.67
2018-04-06T11:33:12.578Z,14.51
2018-04-06T11:35:40.985Z,14.52
2018-04-06T11:38:09.449Z,14.57
2018-04-06T11:40:37.861Z,14.56
2018-04-06T11:43:06.270Z,14.80
2018-04-06T11:45:34.730Z,14.51
2018-04-06T11:48:03.135Z,14.38
2018-04-06T11:50:31.534Z,14.59
2018-04-06T11:52:59.983Z,14.69
2018-04-06T11:55:28.394Z,14.86
2018-04-06T11:57:56.798Z,14.69
2018-04-06T12:00:25.246Z,14.66
2018-04-06T12:02:53.666Z,15.04
2018-04-06T12:05:22.166Z,15.08
2018-04-06T12:07:50.682Z,15.29
2018-04-06T12:10:19.078Z,15.10
2018-04-06T12:12:47.503Z,15.01
2018-04-06T12:15:15.950Z,15.12
2018-04-06T12:17:44.365Z,15.19
2018-04-06T12:20:12.775Z,15.26
2018-04-06T12:22:41.222Z,15.42
2018-04-06T12:25:09.629Z,15.24
2018-04-06T12:27:38.042Z,15.08
2018-04-06T12:30:06.485Z,15.16
2018-04-06T12:32:34.897Z,15.36
2018-04-06T12:35:03.322Z,15.42
2018-04-06T12:37:31.842Z,15.52
2018-04-06T12:40:00.474Z,15.44
2018-04-06T12:42:28.914Z,15.56
2018-04-06T12:44:57.362Z,15.52
2018-04-06T12:47:25.766Z,15.27
2018-04-06T12:49:54.173Z,15.31
2018-04-06T12:52:22.634Z,15.24
2018-04-06T12:54:51.044Z,15.32
2018-04-06T12:57:19.450Z,15.39
2018-04-06T12:59:47.902Z,15.54
2018-04-06T13:02:16.315Z,15.38
2018-04-06T13:04:44.732Z,15.31
2018-04-06T13:07:13.174Z,15.36
2018-04-06T13:09:41.595Z,15.36
2018-04-06T13:12:10.002Z,15.44
2018-04-06T13:14:38.474Z,15.61
2018-04-06T13:17:06.882Z,15.56
2018-04-06T13:19:35.291Z,15.44
2018-04-06T13:22:03.763Z,15.45
2018-04-06T13:24:32.173Z,15.55
2018-04-06T13:27:00.585Z,15.56
2018-04-06T13:29:29.033Z,15.77
2018-04-06T13:31:57.442Z,15.78
2018-04-06T13:34:25.857Z,15.98
2018-04-06T13:36:54.319Z,16.01
2018-04-06T13:39:22.722Z,15.88
2018-04-06T13:41:51.130Z,15.73
2018-04-06T13:44:19.597Z,15.65
2018-04-06T13:46:48.011Z,15.67
2018-04-06T13:49:16.441Z,15.54
2018-04-06T13:51:44.910Z,15.43
2018-04-06T13:54:13.317Z,15.27
2018-04-06T13:56:41.731Z,15.38
2018-04-06T13:59:10.194Z,15.34
2018-04-06T14:01:38.597Z,15.27
2018-04-06T14:04:07.002Z,15.28
2018-04-06T14:06:35.723Z,15.27
2018-04-06T14:09:04.119Z,15.36
2018-04-06T14:11:32.527Z,15.34
2018-04-06T14:14:00.974Z,15.30
2018-04-06T14:16:29.382Z,15.33
2018-04-06T14:18:57.806Z,15.27
2018-04-06T14:21:26.257Z,15.20
2018-04-06T14:23:54.670Z,15.35
2018-04-06T14:26:23.081Z,15.30
2018-04-06T14:28:51.530Z,15.23
2018-04-06T14:31:20.024Z,15.11
2018-04-06T14:33:48.429Z,15.03
2018-04-06T14:36:16.881Z,14.91
2018-04-06T14:38:45.294Z,14.79
2018-04-06T14:41:13.711Z,14.70
2018-04-06T14:43:42.174Z,14.62
2018-04-06T14:46:10.649Z,14.58
2018-04-06T14:48:39.362Z,14.45
2018-04-06T14:51:07.819Z,14.34
2018-04-06T14:53:36.225Z,14.30
2018-04-06T14:56:04.645Z,14.37
2018-04-06T14:58:33.093Z,14.30
2018-04-06T15:01:01.510Z,14.27
2018-04-06T15:03:29.928Z,14.35
2018-04-06T15:05:58.382Z,14.27
2018-04-06T15:08:26.782Z,14.27
2018-04-06T15:10:55.193Z,14.26
2018-04-06T15:13:23.642Z,14.27
2018-04-06T15:15:52.054Z,14.22
2018-04-06T15:18:20.466Z,14.15
2018-04-06T15:20:48.930Z,14.10
2018-04-06T15:23:17.349Z,14.03
2018-04-06T15:25:45.769Z,13.98
2018-04-06T15:28:14.245Z,13.96
2018-04-06T15:30:42.650Z,13.96
2018-04-06T15:33:11.053Z,13.92
2018-04-06T15:35:39.513Z,13.94
2018-04-06T15:38:07.926Z,14.01
2018-04-06T15:40:36.334Z,14.04
2018-04-06T15:43:05.027Z,14.00
2018-04-06T15:45:33.454Z,13.90
2018-04-06T15:48:01.858Z,13.86
2018-04-06T15:50:30.317Z,13.88
2018-04-06T15:52:58.721Z,13.89
2018-04-06T15:55:27.131Z,13.86
2018-04-06T15:57:55.586Z,13.79
2018-04-06T16:00:24.010Z,13.76
2018-04-06T16:02:52.434Z,13.68
2018-04-06T16:05:20.940Z,13.64
2018-04-06T16:07:49.386Z,13.61
2018-04-06T16:10:17.838Z,13.56
2018-04-06T16:12:46.302Z,13.58
2018-04-06T16:15:14.730Z,13.50
2018-04-06T16:17:43.138Z,13.40
2018-04-06T16:20:11.647Z,13.32
2018-04-06T16:22:40.058Z,13.28
2018-04-06T16:25:08.466Z,13.25
2018-04-06T16:27:36.909Z,13.19
2018-04-06T16:30:05.309Z,13.19
2018-04-06T16:32:33.732Z,13.11
2018-04-06T16:35:02.185Z,13.07
2018-04-06T16:37:30.594Z,13.01
2018-04-06T16:39:59.025Z,13.01
2018-04-06T16:42:27.501Z,12.99
2018-04-06T16:44:55.910Z,12.96
2018-04-06T16:47:24.318Z,12.89
2018-04-06T16:49:52.786Z,12.87
2018-04-06T16:52:21.305Z,12.75
2018-04-06T16:54:49.742Z,12.64
2018-04-06T16:57:18.210Z,12.55
2018-04-06T16:59:46.630Z,12.45
2018-04-06T17:02:15.039Z,12.37
2018-04-06T17:04:43.477Z,12.32
2018-04-06T17:07:11.886Z,12.22
2018-04-06T17:09:40.304Z,12.13
2018-04-06T17:12:08.753Z,12.01
2018-04-06T17:14:37.162Z,12.00
2018-04-06T17:17:05.565Z,11.94
2018-04-06T17:19:34.025Z,11.86
2018-04-06T17:22:02.430Z,11.84
2018-04-06T17:24:30.874Z,11.80
2018-04-06T17:26:59.329Z,11.75
2018-04-06T17:29:27.738Z,11.68
2018-04-06T17:31:56.142Z,11.62
2018-04-06T17:34:24.594Z,11.56
2018-04-06T17:36:53.018Z,11.47
2018-04-06T17:39:21.417Z,11.40
2018-04-06T17:41:49.874Z,11.37
2018-04-06T17:44:18.278Z,11.30
2018-04-06T17:46:46.683Z,11.23
2018-04-06T17:49:15.134Z,11.14
2018-04-06T17:51:43.537Z,11.08
2018-04-06T17:54:12.078Z,11.05
2018-04-06T17:56:40.522Z,10.98
2018-04-06T17:59:08.925Z,10.89
2018-04-06T18:01:37.338Z,10.79
2018-04-06T18:04:05.811Z,10.70
2018-04-06T18:06:34.292Z,10.63
2018-04-06T18:09:02.698Z,10.52
2018-04-06T18:11:31.141Z,10.49
2018-04-06T18:14:00.474Z,10.48
2018-04-06T18:16:28.889Z,10.43
2018-04-06T18:18:57.373Z,10.46
2018-04-06T18:21:25.785Z,10.43
2018-04-06T18:23:54.193Z,10.43
2018-04-06T18:26:22.668Z,10.42
2018-04-06T18:28:51.102Z,10.33
2018-04-06T18:31:19.530Z,10.25
2018-04-06T18:33:47.978Z,10.22
2018-04-06T18:36:16.391Z,10.13
2018-04-06T18:38:44.834Z,10.09
2018-04-06T18:41:13.278Z,10.00
2018-04-06T18:43:41.723Z,9.95
2018-04-06T18:46:10.127Z,9.93
2018-04-06T18:48:38.594Z,9.90
2018-04-06T18:51:06.995Z,9.83
2018-04-06T18:53:35.398Z,9.75
2018-04-06T18:56:03.880Z,9.69
2018-04-06T18:58:32.307Z,9.58
2018-04-06T19:01:00.747Z,9.51
2018-04-06T19:03:29.197Z,9.44
2018-04-06T19:05:57.598Z,9.31
2018-04-06T19:08:26.022Z,9.31
2018-04-06T19:10:54.481Z,9.30
2018-04-06T19:13:22.886Z,9.27
2018-04-06T19:15:51.290Z,9.26
2018-04-06T19:18:19.758Z,9.26
2018-04-06T19:20:48.153Z,9.30
2018-04-06T19:23:16.557Z,9.32
2018-04-06T19:25:45.022Z,9.33
2018-04-06T19:28:13.418Z,9.29
2018-04-06T19:30:41.821Z,9.29
2018-04-06T19:33:10.261Z,9.20
2018-04-06T19:35:38.664Z,9.19
2018-04-06T19:38:07.094Z,9.14
2018-04-06T19:40:35.544Z,9.00
2018-04-06T19:43:03.941Z,8.99
2018-04-06T19:45:32.346Z,8.87
2018-04-06T19:48:00.789Z,8.80
2018-04-06T19:50:29.193Z,8.73
2018-04-06T19:52:57.597Z,8.62
2018-04-06T19:55:26.033Z,8.56
2018-04-06T19:57:54.437Z,8.60
2018-04-06T20:00:22.854Z,8.56
2018-04-06T20:02:51.298Z,8.55
2018-04-06T20:05:19.693Z,8.55
2018-04-06T20:07:48.099Z,8.49
2018-04-06T20:10:16.545Z,8.50
2018-04-06T20:12:44.964Z,8.43
2018-04-06T20:15:13.393Z,8.35
2018-04-06T20:17:41.850Z,8.34
2018-04-06T20:20:10.255Z,8.31
2018-04-06T20:22:38.674Z,8.23
2018-04-06T20:25:07.149Z,8.24
2018-04-06T20:27:35.571Z,8.20
2018-04-06T20:30:04.001Z,8.18
2018-04-06T20:32:32.457Z,8.14
2018-04-06T20:35:00.878Z,8.14
2018-04-06T20:37:29.301Z,8.14
2018-04-06T20:39:57.778Z,8.13
2018-04-06T20:42:26.186Z,8.04
2018-04-06T20:44:54.586Z,8.03
2018-04-06T20:47:23.134Z,8.03
2018-04-06T20:49:51.533Z,8.03
2018-04-06T20:52:19.940Z,7.91
2018-04-06T20:54:48.386Z,7.94
2018-04-06T20:57:16.789Z,7.89
2018-04-06T20:59:45.189Z,7.90
2018-04-06T21:02:13.637Z,7.90
2018-04-06T21:04:42.041Z,7.92
2018-04-06T21:07:10.434Z,7.88
2018-04-06T21:09:38.882Z,7.87
2018-04-06T21:12:07.298Z,7.81
2018-04-06T21:14:35.702Z,7.77
2018-04-06T21:17:04.154Z,7.72
2018-04-06T21:19:32.556Z,7.73
2018-04-06T21:22:00.973Z,7.70
2018-04-06T21:24:29.418Z,7.60
2018-04-06T21:26:57.834Z,7.58
2018-04-06T21:29:26.238Z,7.56
2018-04-06T21:31:54.693Z,7.55
2018-04-06T21:34:23.101Z,7.54
2018-04-06T21:36:51.503Z,7.44
2018-04-06T21:39:19.950Z,7.48
2018-04-06T21:41:48.354Z,7.39
2018-04-06T21:44:16.757Z,7.33
2018-04-06T21:46:45.204Z,7.30
2018-04-06T21:49:13.602Z,7.26
2018-04-06T21:51:42.007Z,7.34
2018-04-06T21:54:10.454Z,7.29
2018-04-06T21:56:38.873Z,7.29
2018-04-06T21:59:07.294Z,7.17
2018-04-06T22:01:35.768Z,7.11
2018-04-06T22:04:04.188Z,7.06
2018-04-06T22:06:32.589Z,7.03
2018-04-06T22:09:01.021Z,6.98
2018-04-06T22:11:29.414Z,6.92
2018-04-06T22:13:57.838Z,6.85
2018-04-06T22:16:26.297Z,6.89
2018-04-06T22:18:54.697Z,6.87
2018-04-06T22:21:23.102Z,6.89
2018-04-06T22:23:51.561Z,6.79
2018-04-06T22:26:19.965Z,6.79
2018-04-06T22:28:48.366Z,6.81
2018-04-06T22:31:16.829Z,6.86
2018-04-06T22:33:45.230Z,6.81
2018-04-06T22:36:13.632Z,6.84
2018-04-06T22:38:42.098Z,6.80
2018-04-06T22:41:10.498Z,6.76
2018-04-06T22:43:38.921Z,6.75
2018-04-06T22:46:07.365Z,6.73
2018-04-06T22:48:35.770Z,6.75
2018-04-06T22:51:04.181Z,6.64
2018-04-06T22:53:32.618Z,6.63
2018-04-06T22:56:01.018Z,6.64
2018-04-06T22:58:29.417Z,6.62
2018-04-06T23:00:57.875Z,6.53
2018-04-06T23:03:26.278Z,6.53
2018-04-06T23:05:54.677Z,6.54
2018-04-06T23:08:23.124Z,6.54
2018-04-06T23:10:51.525Z,6.56
2018-04-06T23:13:19.923Z,6.53
2018-04-06T23:15:48.357Z,6.45
2018-04-06T23:18:16.757Z,6.44
2018-04-06T23:20:45.159Z,6.49
2018-04-06T23:23:13.598Z,6.43
2018-04-06T23:25:42.005Z,6.50
2018-04-06T23:28:10.410Z,6.48
2018-04-06T23:30:38.854Z,6.50
2018-04-06T23:33:07.249Z,6.41
2018-04-06T23:35:35.753Z,6.36
2018-04-06T23:38:04.196Z,6.28
2018-04-06T23:40:32.605Z,6.21
2018-04-06T23:43:01.006Z,6.11
2018-04-06T23:45:29.461Z,6.14
2018-04-06T23:47:57.874Z,6.08
2018-04-06T23:50:26.269Z,6.11
2018-04-06T23:52:54.709Z,6.07
2018-04-06T23:55:23.187Z,6.00
2018-04-06T23:57:51.589Z,6.01
